createdAt,value
2022-09-06T00:00:01.513Z,2.60
2022-09-06T00:02:32.731Z,2.20
2022-09-06T00:05:00.340Z,2.27
2022-09-06T00:07:29.545Z,2.10
2022-09-06T00:09:57.655Z,3.13
2022-09-06T00:12:25.233Z,2.03
2022-09-06T00:14:52.984Z,2.00
2022-09-06T00:17:20.977Z,2.30
2022-09-06T00:19:48.541Z,2.20
2022-09-06T00:22:16.127Z,2.20
2022-09-06T00:24:45.229Z,2.10
2022-09-06T00:27:12.751Z,2.37
2022-09-06T00:29:40.257Z,2.27
2022-09-06T00:32:08.476Z,2.57
2022-09-06T00:34:36.032Z,1.93
2022-09-06T00:37:03.584Z,2.80
2022-09-06T00:39:31.170Z,5.30
2022-09-06T00:42:00.072Z,9.27
2022-09-06T00:44:27.623Z,2.33
2022-09-06T00:46:55.819Z,4.63
2022-09-06T00:49:25.740Z,6.50
2022-09-06T00:51:54.481Z,3.20
2022-09-06T00:54:22.133Z,2.90
2022-09-06T00:56:49.767Z,3.67
2022-09-06T00:59:18.958Z,6.20
2022-09-06T01:01:46.624Z,4.47
2022-09-06T01:04:14.531Z,3.50
2022-09-06T01:06:49.088Z,3.90
2022-09-06T01:09:22.040Z,3.43
2022-09-06T01:11:54.879Z,3.03
2022-09-06T01:14:28.966Z,3.00
2022-09-06T01:16:58.653Z,3.73
2022-09-06T01:19:41.533Z,3.00
2022-09-06T01:22:14.446Z,3.63
2022-09-06T01:24:47.943Z,3.83
2022-09-06T01:27:36.507Z,3.83
2022-09-06T01:30:06.603Z,3.40
2022-09-06T01:32:39.311Z,5.37
2022-09-06T01:35:10.876Z,7.00
2022-09-06T01:37:38.675Z,4.30
2022-09-06T01:40:06.848Z,4.73
2022-09-06T01:42:35.707Z,9.70
2022-09-06T01:45:04.890Z,3.90
2022-09-06T01:47:38.726Z,3.77
2022-09-06T01:50:20.931Z,3.40
2022-09-06T01:52:54.581Z,3.13
2022-09-06T01:55:24.122Z,4.70
2022-09-06T01:57:57.891Z,3.60
2022-09-06T02:00:25.733Z,3.80
2022-09-06T02:03:01.716Z,3.47
2022-09-06T02:05:31.974Z,6.63
2022-09-06T02:08:01.804Z,3.57
2022-09-06T02:10:31.256Z,3.10
2022-09-06T02:13:00.783Z,3.37
2022-09-06T02:15:30.501Z,3.53
2022-09-06T02:18:02.445Z,3.67
2022-09-06T02:20:31.882Z,3.60
2022-09-06T02:23:01.857Z,3.70
2022-09-06T02:25:32.980Z,3.20
2022-09-06T02:28:00.526Z,3.40
2022-09-06T02:30:28.213Z,3.70
2022-09-06T02:32:57.918Z,3.60
2022-09-06T02:35:27.169Z,3.83
2022-09-06T02:37:56.333Z,3.97
2022-09-06T02:40:24.063Z,4.47
2022-09-06T02:42:51.645Z,3.23
2022-09-06T02:45:19.254Z,4.53
2022-09-06T02:47:46.822Z,3.50
2022-09-06T02:50:15.308Z,5.00
2022-09-06T02:52:44.195Z,5.90
2022-09-06T02:55:12.320Z,4.30
2022-09-06T02:57:39.844Z,6.67
2022-09-06T03:00:07.737Z,4.43
2022-09-06T03:02:35.268Z,4.20
2022-09-06T03:05:02.984Z,4.10
2022-09-06T03:07:30.599Z,5.70
2022-09-06T03:10:00.267Z,4.33
2022-09-06T03:12:27.819Z,3.63
2022-09-06T03:14:55.366Z,4.10
2022-09-06T03:17:22.972Z,3.53
2022-09-06T03:19:50.543Z,3.50
2022-09-06T03:22:18.128Z,3.20
2022-09-06T03:24:45.654Z,4.00
2022-09-06T03:27:14.603Z,3.37
2022-09-06T03:29:42.172Z,5.00
2022-09-06T03:32:09.773Z,4.13
2022-09-06T03:34:37.449Z,4.00
2022-09-06T03:37:05.085Z,3.80
2022-09-06T03:39:32.686Z,3.83
2022-09-06T03:42:00.413Z,3.57
2022-09-06T03:44:29.353Z,4.00
2022-09-06T03:46:56.848Z,3.80
2022-09-06T03:49:24.455Z,4.47
2022-09-06T03:51:52.059Z,3.57
2022-09-06T03:54:19.595Z,3.53
2022-09-06T03:56:47.103Z,3.80
2022-09-06T03:59:14.634Z,3.50
2022-09-06T04:01:43.626Z,3.93
2022-09-06T04:04:11.317Z,3.93
2022-09-06T04:06:38.833Z,4.03
2022-09-06T04:09:06.421Z,5.73
2022-09-06T04:11:34.068Z,3.87
2022-09-06T04:14:01.747Z,4.03
2022-09-06T04:16:29.421Z,3.93
2022-09-06T04:19:00.009Z,4.23
2022-09-06T04:21:28.156Z,3.83
2022-09-06T04:23:55.771Z,3.80
2022-09-06T04:26:23.289Z,4.20
2022-09-06T04:28:50.758Z,3.67
2022-09-06T04:31:18.410Z,4.13
2022-09-06T04:33:45.991Z,5.33
2022-09-06T04:36:14.969Z,4.63
2022-09-06T04:38:43.712Z,3.60
2022-09-06T04:41:12.245Z,4.10
2022-09-06T04:43:39.767Z,4.03
2022-09-06T04:46:08.246Z,4.10
2022-09-06T04:48:36.021Z,3.73
2022-09-06T04:51:03.573Z,3.90
2022-09-06T04:53:32.647Z,4.10
2022-09-06T04:56:00.264Z,4.10
2022-09-06T04:58:27.892Z,4.43
2022-09-06T05:00:55.532Z,3.60
2022-09-06T05:03:23.157Z,3.57
2022-09-06T05:05:50.716Z,4.13
2022-09-06T05:08:18.785Z,6.13
2022-09-06T05:10:47.701Z,5.33
2022-09-06T05:13:15.181Z,4.10
2022-09-06T05:15:42.738Z,3.90
2022-09-06T05:18:14.142Z,4.80
2022-09-06T05:20:43.680Z,4.37
2022-09-06T05:23:11.211Z,4.10
2022-09-06T05:25:38.757Z,3.80
2022-09-06T05:28:07.682Z,3.93
2022-09-06T05:30:35.268Z,3.90
2022-09-06T05:33:02.801Z,5.53
2022-09-06T05:35:30.852Z,4.10
2022-09-06T05:37:58.455Z,3.97
2022-09-06T05:40:26.031Z,4.20
2022-09-06T05:42:53.563Z,3.60
2022-09-06T05:45:22.571Z,3.60
2022-09-06T05:47:50.130Z,7.90
2022-09-06T05:50:17.698Z,6.20
2022-09-06T05:52:45.248Z,4.40
2022-09-06T05:55:12.836Z,4.37
2022-09-06T05:57:40.382Z,3.97
2022-09-06T06:00:08.597Z,3.90
2022-09-06T06:02:37.654Z,4.73
2022-09-06T06:05:05.481Z,4.80
2022-09-06T06:07:32.981Z,3.70
2022-09-06T06:10:00.470Z,3.90
2022-09-06T06:12:28.031Z,7.73
2022-09-06T06:14:55.578Z,8.00
2022-09-06T06:17:23.533Z,3.93
2022-09-06T06:19:53.477Z,5.87
2022-09-06T06:22:21.035Z,5.00
2022-09-06T06:24:48.575Z,4.10
2022-09-06T06:27:16.089Z,6.80
2022-09-06T06:29:43.609Z,4.10
2022-09-06T06:32:11.189Z,3.90
2022-09-06T06:34:38.694Z,6.27
2022-09-06T06:37:07.703Z,8.10
2022-09-06T06:39:35.347Z,9.13
2022-09-06T06:42:03.375Z,7.27
2022-09-06T06:44:30.978Z,8.20
2022-09-06T06:47:01.963Z,29.80
2022-09-06T06:49:29.863Z,7.17
2022-09-06T06:51:57.381Z,16.63
2022-09-06T06:54:26.288Z,9.90
2022-09-06T06:56:53.990Z,9.40
2022-09-06T06:59:21.743Z,6.00
2022-09-06T07:01:50.651Z,4.57
2022-09-06T07:04:18.385Z,5.90
2022-09-06T07:12:26.947Z,2266.67
2022-09-06T07:14:54.545Z,1722.63
2022-09-06T07:17:22.087Z,1370.10
2022-09-06T07:22:37.147Z,752.53
2022-09-06T07:25:06.748Z,545.00
2022-09-06T07:27:50.122Z,421.93
2022-09-06T07:30:19.522Z,194.33
2022-09-06T07:32:47.095Z,132.47
2022-09-06T07:35:14.844Z,388.60
2022-09-06T07:37:42.403Z,354.23
2022-09-06T07:40:12.281Z,69.90
2022-09-06T07:42:39.921Z,152.67
2022-09-06T07:45:07.861Z,50.77
2022-09-06T07:53:15.630Z,11.10
2022-09-06T07:55:46.649Z,37.93
2022-09-06T07:58:14.187Z,3.70
2022-09-06T08:00:42.012Z,14.40
2022-09-06T08:03:09.588Z,31.53
2022-09-06T08:11:15.425Z,15.50
2022-09-06T08:13:43.331Z,100.53
2022-09-06T08:16:11.763Z,128.47
2022-09-06T08:18:39.389Z,74.17
2022-09-06T08:21:12.038Z,22.53
2022-09-06T08:23:42.771Z,124.03
2022-09-06T08:26:10.372Z,3.47
2022-09-06T08:28:39.314Z,2.03
2022-09-06T08:31:07.796Z,4.70
2022-09-06T08:33:35.567Z,51.10
2022-09-06T08:36:03.353Z,7.50
2022-09-06T08:38:30.982Z,6.23
2022-09-06T08:41:07.645Z,30.27
2022-09-06T08:43:35.361Z,15.77
2022-09-06T08:46:05.276Z,16.73
2022-09-06T08:48:35.719Z,1.90
2022-09-06T08:51:08.888Z,4.27
2022-09-06T08:53:40.534Z,7.63
2022-09-06T08:56:13.436Z,8.60
2022-09-06T08:58:48.179Z,2.20
2022-09-06T09:01:18.757Z,2.40
2022-09-06T09:03:46.829Z,13.13
2022-09-06T09:06:14.387Z,2.00
2022-09-06T09:08:46.250Z,4.37
2022-09-06T09:11:16.519Z,3.03
2022-09-06T09:13:50.962Z,1.90
2022-09-06T09:16:20.271Z,3.00
2022-09-06T09:18:49.037Z,1.80
2022-09-06T09:21:19.486Z,1.90
2022-09-06T09:23:52.277Z,6.17
2022-09-06T09:26:20.179Z,1.57
2022-09-06T09:29:02.534Z,1.80
2022-09-06T09:31:36.685Z,7.00
2022-09-06T09:34:05.040Z,5.17
2022-09-06T09:36:33.223Z,1.60
2022-09-06T09:39:01.022Z,6.13
2022-09-06T09:41:30.249Z,5.50
2022-09-06T09:44:02.378Z,4.00
2022-09-06T09:46:33.777Z,8.23
2022-09-06T09:49:04.225Z,2.70
2022-09-06T09:51:32.494Z,1.80
2022-09-06T09:54:01.672Z,1.70
2022-09-06T09:56:35.229Z,2.43
2022-09-06T09:59:03.674Z,2.90
2022-09-06T10:01:33.038Z,3.00
2022-09-06T10:09:39.695Z,6.80
2022-09-06T10:12:07.515Z,2.50
2022-09-06T10:14:42.434Z,1.50
2022-09-06T10:17:18.606Z,2.70
2022-09-06T10:19:47.315Z,2.03
2022-09-06T10:22:24.421Z,1.67
2022-09-06T10:24:58.892Z,1.50
2022-09-06T10:27:27.461Z,8.00
2022-09-06T10:29:56.716Z,2.83
2022-09-06T10:32:31.116Z,4.30
2022-09-06T10:35:05.143Z,5.00
2022-09-06T10:37:44.361Z,2.00
2022-09-06T10:40:13.513Z,1.30
2022-09-06T10:42:44.043Z,1.10
2022-09-06T10:45:17.921Z,5.40
2022-09-06T10:47:59.509Z,5.00
2022-09-06T10:50:29.836Z,2.50
2022-09-06T10:53:01.224Z,2.40
2022-09-06T10:55:29.243Z,6.00
2022-09-06T11:00:47.861Z,4.10
2022-09-06T11:06:08.756Z,9.87
2022-09-06T11:08:48.308Z,5.90
2022-09-06T11:11:20.089Z,2.30
2022-09-06T11:13:48.367Z,3.17
2022-09-06T11:16:19.117Z,1.97
2022-09-06T11:18:48.541Z,2.50
2022-09-06T11:21:30.988Z,10.47
2022-09-06T11:24:03.796Z,6.20
2022-09-06T11:26:41.514Z,8.27
2022-09-06T11:29:10.010Z,1.77
2022-09-06T11:34:38.297Z,3.10
2022-09-06T11:37:07.223Z,1.77
2022-09-06T11:42:41.710Z,2.30
2022-09-06T11:45:21.297Z,2.50
2022-09-06T11:47:49.416Z,3.43
2022-09-06T11:50:24.378Z,1.80
2022-09-06T11:52:56.915Z,8.90
2022-09-06T11:55:30.892Z,1.87
2022-09-06T11:57:59.603Z,2.50
2022-09-06T12:00:27.473Z,1.60
2022-09-06T12:05:57.494Z,2.07
2022-09-06T12:08:33.012Z,1.70
2022-09-06T12:11:18.566Z,2.80
2022-09-06T12:13:54.236Z,2.77
2022-09-06T12:16:22.220Z,1.80
2022-09-06T12:18:57.176Z,1.57
2022-09-06T12:21:34.689Z,19.17
2022-09-06T12:24:02.681Z,2.73
2022-09-06T12:26:49.715Z,2.03
2022-09-06T12:29:25.363Z,3.83
2022-09-06T12:31:53.657Z,1.83
2022-09-06T12:34:24.104Z,3.00
2022-09-06T12:36:56.475Z,3.70
2022-09-06T12:39:24.808Z,2.77
2022-09-06T12:41:55.068Z,6.93
2022-09-06T12:44:27.867Z,1.93
2022-09-06T12:46:55.432Z,3.23
2022-09-06T12:49:23.477Z,1.80
2022-09-06T12:51:51.357Z,1.90
2022-09-06T12:54:21.784Z,1.60
2022-09-06T12:56:49.602Z,1.93
2022-09-06T12:59:19.671Z,2.37
2022-09-06T13:01:51.188Z,1.80
2022-09-06T13:04:24.172Z,5.93
2022-09-06T13:06:51.856Z,3.93
2022-09-06T13:09:20.703Z,1.87
2022-09-06T13:11:50.994Z,2.23
2022-09-06T13:14:20.465Z,2.03
2022-09-06T13:16:49.576Z,6.53
2022-09-06T13:19:19.112Z,1.97
2022-09-06T13:21:47.415Z,11.80
2022-09-06T13:24:22.207Z,1.80
2022-09-06T13:26:50.417Z,2.00
2022-09-06T13:29:24.966Z,2.03
2022-09-06T13:31:53.248Z,3.77
2022-09-06T13:34:22.907Z,2.43
2022-09-06T13:36:51.025Z,1.90
2022-09-06T13:39:30.067Z,4.03
2022-09-06T13:42:00.679Z,3.17
2022-09-06T13:44:31.960Z,3.93
2022-09-06T13:46:59.864Z,1.97
2022-09-06T13:49:29.249Z,2.00
2022-09-06T13:52:00.135Z,1.83
2022-09-06T13:54:28.002Z,2.00
2022-09-06T13:56:55.995Z,3.47
2022-09-06T13:59:26.275Z,2.60
2022-09-06T14:01:57.404Z,4.20
2022-09-06T14:04:25.751Z,4.47
2022-09-06T14:06:55.430Z,1.70
2022-09-06T14:09:23.184Z,2.07
2022-09-06T14:11:50.897Z,3.77
2022-09-06T14:14:18.930Z,2.53
2022-09-06T14:16:47.635Z,7.60
2022-09-06T14:19:15.977Z,3.80
2022-09-06T14:21:43.804Z,2.60
2022-09-06T14:24:12.847Z,2.30
2022-09-06T14:26:40.504Z,2.93
2022-09-06T14:29:08.203Z,3.33
2022-09-06T14:31:35.842Z,1.83
2022-09-06T14:34:04.153Z,2.63
2022-09-06T14:36:32.801Z,3.10
2022-09-06T14:39:01.178Z,2.00
2022-09-06T14:41:30.363Z,1.57
2022-09-06T14:43:58.660Z,1.83
2022-09-06T14:46:27.123Z,5.33
2022-09-06T14:48:58.199Z,2.03
2022-09-06T14:51:25.963Z,3.90
2022-09-06T14:53:54.755Z,1.87
2022-09-06T14:56:22.938Z,2.03
2022-09-06T14:58:51.889Z,1.57
2022-09-06T15:01:20.463Z,1.87
2022-09-06T15:03:51.473Z,2.87
2022-09-06T15:06:19.847Z,2.17
2022-09-06T15:08:47.840Z,6.93
2022-09-06T15:11:15.794Z,3.53
2022-09-06T15:13:43.448Z,1.73
2022-09-06T15:16:12.481Z,1.70
2022-09-06T15:18:40.116Z,2.43
2022-09-06T15:21:11.283Z,5.80
2022-09-06T15:23:39.530Z,1.60
2022-09-06T15:26:08.162Z,2.23
2022-09-06T15:28:36.018Z,2.17
2022-09-06T15:31:03.965Z,1.50
2022-09-06T15:33:33.440Z,2.97
2022-09-06T15:36:06.056Z,2.87
2022-09-06T15:38:33.717Z,2.40
2022-09-06T15:41:08.113Z,2.00
2022-09-06T15:43:36.339Z,2.20
2022-09-06T15:46:04.634Z,1.97
2022-09-06T15:48:40.112Z,1.67
2022-09-06T15:51:07.679Z,1.73
2022-09-06T15:53:35.329Z,3.03
2022-09-06T15:56:04.126Z,1.90
2022-09-06T15:58:31.909Z,2.10
2022-09-06T16:01:06.967Z,2.00
2022-09-06T16:03:37.966Z,2.70
2022-09-06T16:08:50.750Z,4.13
2022-09-06T16:11:18.893Z,1.70
2022-09-06T16:13:47.120Z,2.23
2022-09-06T16:16:15.957Z,1.87
2022-09-06T16:18:46.593Z,1.50
2022-09-06T16:21:15.359Z,9.20
2022-09-06T16:23:43.250Z,2.00
2022-09-06T16:26:11.031Z,1.80
2022-09-06T16:28:38.668Z,2.60
2022-09-06T16:31:07.377Z,2.40
2022-09-06T16:33:35.614Z,2.00
2022-09-06T16:36:05.678Z,2.40
2022-09-06T16:38:33.572Z,4.20
2022-09-06T16:41:02.052Z,12.53
2022-09-06T16:43:29.691Z,8.13
2022-09-06T16:45:58.534Z,1.90
2022-09-06T16:50:27.835Z,1.77
2022-09-06T16:52:55.404Z,1.90
2022-09-06T16:55:23.092Z,1.83
2022-09-06T16:57:50.587Z,3.83
2022-09-06T17:00:18.274Z,3.13
2022-09-06T17:02:47.652Z,1.67
2022-09-06T17:05:15.355Z,2.23
2022-09-06T17:07:44.198Z,3.33
2022-09-06T17:10:11.835Z,1.80
2022-09-06T17:12:42.232Z,5.17
2022-09-06T17:15:10.304Z,3.50
2022-09-06T17:17:36.826Z,2.10
2022-09-06T17:20:04.859Z,2.13
2022-09-06T17:22:32.451Z,1.80
2022-09-06T17:25:01.768Z,2.20
2022-09-06T17:27:29.401Z,2.83
2022-09-06T17:29:56.947Z,4.57
2022-09-06T17:32:24.433Z,9.17
2022-09-06T17:34:51.969Z,7.13
2022-09-06T17:37:19.503Z,2.13
2022-09-06T17:39:47.612Z,3.83
2022-09-06T17:42:16.905Z,5.20
2022-09-06T17:44:45.687Z,2.70
2022-09-06T17:47:14.221Z,4.00
2022-09-06T17:49:42.506Z,10.47
2022-09-06T17:52:10.137Z,6.73
2022-09-06T17:54:37.807Z,1.87
2022-09-06T17:57:05.461Z,2.13
2022-09-06T17:59:36.004Z,2.83
2022-09-06T18:02:04.473Z,4.13
2022-09-06T18:04:32.049Z,4.10
2022-09-06T18:06:59.756Z,3.83
2022-09-06T18:09:27.255Z,1.90
2022-09-06T18:11:54.906Z,4.03
2022-09-06T18:14:22.583Z,10.53
2022-09-06T18:16:52.426Z,2.40
2022-09-06T18:19:19.996Z,2.03
2022-09-06T18:21:48.471Z,4.20
2022-09-06T18:24:16.271Z,1.87
2022-09-06T18:26:44.495Z,2.43
2022-09-06T18:29:15.086Z,1.93
2022-09-06T18:31:43.008Z,2.10
2022-09-06T18:34:12.711Z,3.73
2022-09-06T18:36:40.785Z,5.23
2022-09-06T18:39:08.570Z,4.03
2022-09-06T18:41:53.575Z,3.63
2022-09-06T18:44:21.610Z,2.20
2022-09-06T18:46:49.451Z,3.13
2022-09-06T18:49:19.231Z,3.07
2022-09-06T18:51:47.072Z,2.93
2022-09-06T18:54:14.846Z,5.90
2022-09-06T18:56:44.903Z,5.37
2022-09-06T18:59:12.953Z,2.70
2022-09-06T19:01:41.237Z,2.00
2022-09-06T19:04:09.100Z,1.93
2022-09-06T19:06:38.645Z,2.97
2022-09-06T19:09:08.021Z,6.53
2022-09-06T19:11:36.049Z,3.33
2022-09-06T19:14:03.981Z,1.93
2022-09-06T19:16:33.823Z,5.70
2022-09-06T19:19:07.970Z,2.30
2022-09-06T19:21:41.435Z,3.03
2022-09-06T19:24:12.182Z,3.53
2022-09-06T19:26:41.665Z,4.63
2022-09-06T19:29:12.389Z,2.30
2022-09-06T19:31:40.357Z,3.53
2022-09-06T19:34:08.043Z,5.83
2022-09-06T19:36:35.985Z,2.10
2022-09-06T19:39:05.803Z,2.20
2022-09-06T19:41:37.094Z,1.93
2022-09-06T19:44:07.746Z,2.17
2022-09-06T19:46:35.861Z,2.83
2022-09-06T19:49:03.576Z,5.90
2022-09-06T19:51:31.627Z,3.90
2022-09-06T19:53:59.881Z,1.93
2022-09-06T19:56:30.040Z,1.90
2022-09-06T19:58:59.943Z,3.10
2022-09-06T20:01:29.343Z,4.27
2022-09-06T20:03:57.193Z,2.03
2022-09-06T20:06:24.779Z,2.20
2022-09-06T20:08:52.724Z,2.40
2022-09-06T20:11:20.871Z,2.17
2022-09-06T20:13:48.381Z,1.63
2022-09-06T20:16:20.485Z,5.10
2022-09-06T20:18:48.430Z,2.07
2022-09-06T20:21:18.262Z,5.87
2022-09-06T20:23:49.648Z,2.20
2022-09-06T20:26:18.016Z,2.00
2022-09-06T20:28:45.783Z,2.60
2022-09-06T20:31:15.435Z,1.90
2022-09-06T20:33:48.786Z,14.33
2022-09-06T20:36:17.500Z,3.13
2022-09-06T20:38:45.656Z,4.80
2022-09-06T20:41:14.051Z,3.00
2022-09-06T20:43:42.458Z,9.20
2022-09-06T20:46:11.278Z,2.63
2022-09-06T20:48:44.179Z,2.73
2022-09-06T20:51:15.447Z,4.00
2022-09-06T20:53:42.993Z,4.93
2022-09-06T20:56:11.994Z,3.53
2022-09-06T20:58:40.093Z,5.27
2022-09-06T21:01:08.483Z,2.33
2022-09-06T21:03:38.103Z,8.10
2022-09-06T21:06:05.848Z,3.07
2022-09-06T21:08:37.468Z,4.57
2022-09-06T21:11:07.438Z,3.10
2022-09-06T21:13:35.374Z,2.47
2022-09-06T21:16:03.384Z,3.47
2022-09-06T21:18:31.532Z,4.90
2022-09-06T21:21:00.172Z,4.10
2022-09-06T21:23:28.512Z,4.20
2022-09-06T21:25:58.907Z,8.47
2022-09-06T21:28:28.184Z,2.83
2022-09-06T21:31:02.917Z,11.40
2022-09-06T21:33:31.220Z,4.53
2022-09-06T21:36:00.336Z,2.80
2022-09-06T21:38:27.944Z,4.07
2022-09-06T21:40:56.957Z,2.93
2022-09-06T21:43:24.454Z,2.53
2022-09-06T21:45:52.010Z,3.07
2022-09-06T21:48:19.597Z,2.57
2022-09-06T21:50:47.639Z,2.40
2022-09-06T21:53:15.331Z,3.17
2022-09-06T21:55:43.672Z,2.57
2022-09-06T21:58:13.413Z,3.77
2022-09-06T22:00:41.085Z,3.03
2022-09-06T22:03:09.300Z,2.03
2022-09-06T22:05:36.827Z,3.63
2022-09-06T22:08:04.572Z,2.00
2022-09-06T22:10:32.172Z,2.97
2022-09-06T22:12:59.660Z,2.17
2022-09-06T22:15:28.572Z,4.10
2022-09-06T22:17:57.715Z,3.53
2022-09-06T22:20:25.240Z,2.30
2022-09-06T22:22:52.785Z,5.13
2022-09-06T22:25:20.311Z,4.60
2022-09-06T22:27:47.821Z,2.07
2022-09-06T22:30:15.370Z,2.53
2022-09-06T22:32:44.261Z,1.90
2022-09-06T22:35:11.766Z,2.50
2022-09-06T22:37:39.356Z,1.70
2022-09-06T22:40:07.428Z,1.97
2022-09-06T22:42:34.984Z,2.27
2022-09-06T22:45:02.604Z,2.20
2022-09-06T22:47:30.094Z,2.33
2022-09-06T22:49:59.091Z,2.40
2022-09-06T22:52:26.573Z,2.30
2022-09-06T22:54:54.120Z,2.80
2022-09-06T22:57:21.620Z,2.67
2022-09-06T22:59:49.132Z,7.30
2022-09-06T23:02:16.648Z,2.20
2022-09-06T23:04:44.228Z,2.60
2022-09-06T23:07:13.167Z,2.53
2022-09-06T23:09:40.657Z,2.40
2022-09-06T23:12:08.368Z,2.33
2022-09-06T23:14:35.934Z,3.67
2022-09-06T23:17:03.488Z,2.50
2022-09-06T23:19:31.003Z,4.80
2022-09-06T23:21:58.506Z,2.40
2022-09-06T23:24:27.403Z,2.40
2022-09-06T23:26:55.507Z,2.60
2022-09-06T23:29:23.113Z,2.10
2022-09-06T23:31:50.737Z,1.97
2022-09-06T23:34:18.370Z,1.90
2022-09-06T23:36:46.163Z,1.70
2022-09-06T23:39:13.701Z,4.40
2022-09-06T23:41:42.549Z,3.53
2022-09-06T23:44:10.052Z,9.97
2022-09-06T23:46:37.705Z,1.40
2022-09-06T23:49:05.462Z,4.30
2022-09-06T23:51:32.949Z,4.70
2022-09-06T23:54:00.779Z,9.13
2022-09-06T23:56:28.466Z,15.33
2022-09-06T23:58:57.272Z,4.07
